createdAt,value
2017-08-13T00:00:17.685Z,100987.95
2017-08-13T00:02:44.102Z,100995.67
2017-08-13T00:05:10.458Z,100991.36
2017-08-13T00:07:36.844Z,100989.67
2017-08-13T00:10:03.237Z,100991.36
2017-08-13T00:12:29.618Z,100986.09
2017-08-13T00:14:55.998Z,100979.75
2017-08-13T00:17:22.369Z,100984.36
2017-08-13T00:19:48.760Z,100986.73
2017-08-13T00:22:15.139Z,100992.77
2017-08-13T00:24:41.544Z,100990.82
2017-08-13T00:27:07.909Z,100990.56
2017-08-13T00:29:34.303Z,100986.67
2017-08-13T00:32:00.697Z,100985.56
2017-08-13T00:34:27.085Z,100985.22
2017-08-13T00:36:53.451Z,100986.98
2017-08-13T00:39:19.827Z,100976.95
2017-08-13T00:41:46.229Z,100963.78
2017-08-13T00:44:12.637Z,100960.91
2017-08-13T00:46:39.020Z,100970.05
2017-08-13T00:49:05.437Z,100984.14
2017-08-13T00:51:31.878Z,100989.23
2017-08-13T00:53:58.267Z,100991.55
2017-08-13T00:56:24.677Z,100987.59
2017-08-13T00:58:51.084Z,100984.92
2017-08-13T01:01:17.507Z,100986.21
2017-08-13T01:03:43.870Z,100994.23
2017-08-13T01:06:10.235Z,100983.33
2017-08-13T01:08:36.615Z,100977.20
2017-08-13T01:11:03.021Z,100982.72
2017-08-13T01:13:29.405Z,100984.88
2017-08-13T01:15:55.792Z,100984.31
2017-08-13T01:18:22.139Z,100985.39
2017-08-13T01:20:48.570Z,100985.03
2017-08-13T01:23:14.960Z,100985.78
2017-08-13T01:25:41.327Z,100983.45
2017-08-13T01:28:07.718Z,100985.09
2017-08-13T01:30:34.105Z,100990.21
2017-08-13T01:33:00.484Z,100991.86
2017-08-13T01:35:26.864Z,100999.44
2017-08-13T01:37:53.233Z,100996.27
2017-08-13T01:40:19.631Z,100997.84
2017-08-13T01:42:46.015Z,100991.20
2017-08-13T01:45:12.424Z,100983.19
2017-08-13T01:47:38.800Z,100988.53
2017-08-13T01:50:05.172Z,100990.25
2017-08-13T01:52:31.543Z,100987.33
2017-08-13T01:54:57.905Z,100990.13
2017-08-13T01:57:24.281Z,100993.28
2017-08-13T01:59:50.670Z,100995.95
2017-08-13T02:02:17.036Z,100992.32
2017-08-13T02:04:43.416Z,100998.70
2017-08-13T02:07:09.769Z,101004.22
2017-08-13T02:09:36.118Z,100996.53
2017-08-13T02:12:02.527Z,101000.98
2017-08-13T02:14:28.893Z,100998.53
2017-08-13T02:16:55.277Z,100996.47
2017-08-13T02:19:21.648Z,101001.28
2017-08-13T02:21:48.043Z,100999.10
2017-08-13T02:24:14.426Z,101001.36
2017-08-13T02:26:40.797Z,101003.60
2017-08-13T02:29:07.177Z,100999.47
2017-08-13T02:31:33.569Z,100999.12
2017-08-13T02:33:59.955Z,100996.84
2017-08-13T02:36:26.333Z,100998.73
2017-08-13T02:38:52.711Z,100992.13
2017-08-13T02:41:19.084Z,100992.00
2017-08-13T02:43:45.466Z,101001.06
2017-08-13T02:46:11.879Z,101002.41
2017-08-13T02:48:38.248Z,101000.55
2017-08-13T02:51:04.613Z,101000.45
2017-08-13T02:53:30.976Z,100994.51
2017-08-13T02:55:57.318Z,101006.38
2017-08-13T02:58:23.683Z,101003.63
2017-08-13T03:00:50.082Z,101004.14
2017-08-13T03:03:16.484Z,101013.36
2017-08-13T03:05:42.839Z,101012.94
2017-08-13T03:08:09.209Z,101011.22
2017-08-13T03:10:35.571Z,101012.68
2017-08-13T03:13:01.942Z,101012.56
2017-08-13T03:15:28.316Z,101011.41
2017-08-13T03:17:54.711Z,101012.25
2017-08-13T03:20:21.118Z,101015.31
2017-08-13T03:22:47.485Z,101011.94
2017-08-13T03:25:13.847Z,101005.65
2017-08-13T03:27:40.213Z,101006.91
2017-08-13T03:30:06.570Z,101002.72
2017-08-13T03:32:32.939Z,100998.72
2017-08-13T03:34:59.324Z,100993.31
2017-08-13T03:37:25.685Z,101002.73
2017-08-13T03:39:52.067Z,101013.89
2017-08-13T03:42:18.434Z,101018.77
2017-08-13T03:44:44.826Z,101025.20
2017-08-13T03:47:11.217Z,101022.89
2017-08-13T03:49:37.579Z,101029.03
2017-08-13T03:52:03.960Z,101032.63
2017-08-13T03:54:30.303Z,101028.92
2017-08-13T03:56:56.690Z,101036.23
2017-08-13T03:59:23.061Z,101031.26
2017-08-13T04:01:49.421Z,101030.53
2017-08-13T04:04:15.797Z,101028.81
2017-08-13T04:06:45.762Z,101035.02
2017-08-13T04:09:12.132Z,101037.92
2017-08-13T04:11:38.578Z,101043.41
2017-08-13T04:14:04.936Z,101044.34
2017-08-13T04:16:31.318Z,101041.65
2017-08-13T04:18:57.693Z,101052.85
2017-08-13T04:21:24.050Z,101055.72
2017-08-13T04:23:50.415Z,101056.98
2017-08-13T04:26:16.758Z,101065.32
2017-08-13T04:28:43.122Z,101060.44
2017-08-13T04:31:09.494Z,101062.45
2017-08-13T04:33:35.882Z,101052.93
2017-08-13T04:36:02.239Z,101056.82
2017-08-13T04:38:28.615Z,101056.75
2017-08-13T04:40:55.029Z,101065.09
2017-08-13T04:43:21.416Z,101067.25
2017-08-13T04:45:47.812Z,101064.45
2017-08-13T04:48:14.181Z,101064.78
2017-08-13T04:50:40.587Z,101069.03
2017-08-13T04:53:06.972Z,101072.52
2017-08-13T04:55:33.376Z,101071.85
2017-08-13T04:57:59.767Z,101077.94
2017-08-13T05:00:26.117Z,101079.31
2017-08-13T05:02:52.505Z,101075.07
2017-08-13T05:05:18.881Z,101077.09
2017-08-13T05:07:45.292Z,101086.16
2017-08-13T05:10:11.706Z,101080.87
2017-08-13T05:12:38.079Z,101093.23
2017-08-13T05:15:04.447Z,101098.40
2017-08-13T05:17:30.839Z,101100.06
2017-08-13T05:19:57.240Z,101105.91
2017-08-13T05:22:23.599Z,101104.37
2017-08-13T05:24:49.960Z,101102.61
2017-08-13T05:27:16.347Z,101105.55
2017-08-13T05:29:42.699Z,101101.84
2017-08-13T05:32:09.042Z,101104.23
2017-08-13T05:34:35.428Z,101116.56
2017-08-13T05:37:02.682Z,101111.06
2017-08-13T05:39:29.073Z,101111.92
2017-08-13T05:41:55.436Z,101111.91
2017-08-13T05:44:21.845Z,101110.57
2017-08-13T05:46:48.243Z,101113.28
2017-08-13T05:49:14.625Z,101114.66
2017-08-13T05:51:40.958Z,101119.94
2017-08-13T05:54:07.324Z,101129.84
2017-08-13T05:56:33.698Z,101132.56
2017-08-13T05:59:00.462Z,101131.34
2017-08-13T06:01:27.888Z,101138.80
2017-08-13T06:03:54.233Z,101143.34
2017-08-13T06:06:20.629Z,101143.89
2017-08-13T06:08:47.020Z,101138.03
2017-08-13T06:11:13.377Z,101143.97
2017-08-13T06:13:39.750Z,101145.50
2017-08-13T06:16:06.128Z,101145.81
2017-08-13T06:18:32.525Z,101145.80
2017-08-13T06:20:58.903Z,101148.58
2017-08-13T06:23:25.296Z,101155.17
2017-08-13T06:25:51.687Z,101157.30
2017-08-13T06:28:18.088Z,101155.88
2017-08-13T06:30:44.497Z,101158.20
2017-08-13T06:33:10.897Z,101160.86
2017-08-13T06:35:37.247Z,101156.05
2017-08-13T06:38:03.603Z,101161.48
2017-08-13T06:40:30.001Z,101160.69
2017-08-13T06:42:56.700Z,101164.67
2017-08-13T06:45:23.075Z,101167.66
2017-08-13T06:47:49.511Z,101172.09
2017-08-13T06:50:15.908Z,101180.41
2017-08-13T06:52:42.329Z,101178.99
2017-08-13T06:55:08.687Z,101180.41
2017-08-13T06:57:35.073Z,101183.17
2017-08-13T07:00:01.487Z,101186.52
2017-08-13T07:02:27.862Z,101194.56
2017-08-13T07:04:54.213Z,101194.09
2017-08-13T07:07:20.571Z,101193.22
2017-08-13T07:09:46.968Z,101200.70
2017-08-13T07:12:13.398Z,101203.56
2017-08-13T07:14:39.747Z,101205.95
2017-08-13T07:17:06.143Z,101198.45
2017-08-13T07:19:32.543Z,101205.66
2017-08-13T07:21:58.910Z,101203.69
2017-08-13T07:24:25.285Z,101208.25
2017-08-13T07:26:51.659Z,101202.47
2017-08-13T07:29:18.045Z,101206.73
2017-08-13T07:31:44.441Z,101213.61
2017-08-13T07:34:10.847Z,101215.89
2017-08-13T07:36:37.242Z,101213.66
2017-08-13T07:39:04.006Z,101219.04
2017-08-13T07:41:30.873Z,101220.47
2017-08-13T07:43:57.257Z,101220.36
2017-08-13T07:46:23.667Z,101228.02
2017-08-13T07:48:50.073Z,101218.16
2017-08-13T07:51:16.464Z,101223.17
2017-08-13T07:53:42.863Z,101227.33
2017-08-13T07:56:09.227Z,101228.84
2017-08-13T07:58:35.598Z,101220.70
2017-08-13T08:01:02.173Z,101231.37
2017-08-13T08:03:29.436Z,101225.28
2017-08-13T08:05:55.888Z,101222.94
2017-08-13T08:08:22.289Z,101231.05
2017-08-13T08:10:48.746Z,101232.82
2017-08-13T08:13:15.137Z,101234.41
2017-08-13T08:15:41.532Z,101230.39
2017-08-13T08:18:07.950Z,101234.22
2017-08-13T08:20:34.324Z,101228.95
2017-08-13T08:23:00.716Z,101231.95
2017-08-13T08:25:27.106Z,101235.52
2017-08-13T08:27:53.511Z,101236.12
2017-08-13T08:30:19.913Z,101241.16
2017-08-13T08:32:46.296Z,101243.53
2017-08-13T08:35:12.677Z,101251.91
2017-08-13T08:37:39.064Z,101248.95
2017-08-13T08:40:05.606Z,101255.80
2017-08-13T08:42:31.989Z,101254.00
2017-08-13T08:44:58.375Z,101256.80
2017-08-13T08:47:24.780Z,101258.09
2017-08-13T08:49:51.157Z,101257.33
2017-08-13T08:52:17.528Z,101253.60
2017-08-13T08:54:43.920Z,101257.75
2017-08-13T08:57:10.327Z,101261.41
2017-08-13T08:59:36.722Z,101261.09
2017-08-13T09:02:03.132Z,101264.47
2017-08-13T09:04:29.491Z,101262.73
2017-08-13T09:06:55.881Z,101257.00
2017-08-13T09:09:22.248Z,101257.19
2017-08-13T09:11:48.644Z,101253.17
2017-08-13T09:14:15.035Z,101254.13
2017-08-13T09:16:41.438Z,101259.05
2017-08-13T09:19:07.821Z,101271.77
2017-08-13T09:21:34.221Z,101265.59
2017-08-13T09:24:00.614Z,101258.40
2017-08-13T09:26:27.003Z,101263.76
2017-08-13T09:28:53.386Z,101262.98
2017-08-13T09:31:19.763Z,101265.95
2017-08-13T09:33:46.145Z,101267.41
2017-08-13T09:36:12.544Z,101270.22
2017-08-13T09:38:38.934Z,101272.13
2017-08-13T09:41:05.312Z,101270.32
2017-08-13T09:43:31.686Z,101273.72
2017-08-13T09:45:58.038Z,101276.19
2017-08-13T09:48:24.433Z,101277.19
2017-08-13T09:50:50.798Z,101275.85
2017-08-13T09:53:17.186Z,101271.71
2017-08-13T09:55:43.555Z,101267.56
2017-08-13T09:58:09.967Z,101273.20
2017-08-13T10:00:36.344Z,101268.44
2017-08-13T10:03:02.744Z,101267.53
2017-08-13T10:05:29.129Z,101276.37
2017-08-13T10:07:55.518Z,101272.03
2017-08-13T10:10:21.928Z,101270.38
2017-08-13T10:12:48.329Z,101271.37
2017-08-13T10:15:14.729Z,101278.50
2017-08-13T10:17:41.150Z,101270.02
2017-08-13T10:20:07.857Z,101265.50
2017-08-13T10:22:34.256Z,101267.33
2017-08-13T10:25:00.675Z,101256.77
2017-08-13T10:27:27.087Z,101265.42
2017-08-13T10:29:53.500Z,101261.20
2017-08-13T10:32:19.901Z,101258.78
2017-08-13T10:34:46.273Z,101259.97
2017-08-13T10:37:12.666Z,101266.59
2017-08-13T10:39:39.050Z,101265.80
2017-08-13T10:42:05.429Z,101267.91
2017-08-13T10:44:31.824Z,101269.00
2017-08-13T10:46:58.585Z,101271.94
2017-08-13T10:49:25.015Z,101269.28
2017-08-13T10:51:51.410Z,101277.64
2017-08-13T10:54:17.815Z,101276.50
2017-08-13T10:56:44.217Z,101268.30
2017-08-13T10:59:10.899Z,101262.52
2017-08-13T11:01:38.168Z,101264.65
2017-08-13T11:04:04.639Z,101260.12
2017-08-13T11:06:31.056Z,101258.09
2017-08-13T11:08:57.909Z,101263.77
2017-08-13T11:11:24.309Z,101260.52
2017-08-13T11:13:50.710Z,101264.29
2017-08-13T11:16:17.127Z,101264.72
2017-08-13T11:18:43.527Z,101268.80
2017-08-13T11:21:09.950Z,101274.09
2017-08-13T11:23:36.336Z,101271.14
2017-08-13T11:26:02.755Z,101277.07
2017-08-13T11:28:29.157Z,101276.41
2017-08-13T11:30:55.568Z,101272.45
2017-08-13T11:33:21.995Z,101273.66
2017-08-13T11:35:48.407Z,101277.56
2017-08-13T11:38:14.809Z,101276.69
2017-08-13T11:40:41.268Z,101275.28
2017-08-13T11:43:07.698Z,101274.09
2017-08-13T11:45:34.210Z,101281.53
2017-08-13T11:48:00.627Z,101280.69
2017-08-13T11:50:27.004Z,101273.60
2017-08-13T11:52:53.404Z,101279.44
2017-08-13T11:55:19.853Z,101283.70
2017-08-13T11:57:46.247Z,101274.52
2017-08-13T12:00:12.667Z,101278.41
2017-08-13T12:02:39.054Z,101281.66
2017-08-13T12:05:05.439Z,101275.77
2017-08-13T12:07:31.820Z,101272.78
2017-08-13T12:09:58.384Z,101280.05
2017-08-13T12:12:25.188Z,101277.24
2017-08-13T12:14:51.564Z,101276.58
2017-08-13T12:17:17.934Z,101285.22
2017-08-13T12:19:44.344Z,101285.22
2017-08-13T12:22:10.714Z,101282.05
2017-08-13T12:24:37.124Z,101280.66
2017-08-13T12:27:03.517Z,101284.16
2017-08-13T12:29:29.913Z,101279.80
2017-08-13T12:31:56.289Z,101280.67
2017-08-13T12:34:22.677Z,101279.41
2017-08-13T12:36:49.067Z,101281.45
2017-08-13T12:39:15.450Z,101285.43
2017-08-13T12:41:41.985Z,101284.58
2017-08-13T12:44:08.393Z,101279.70
2017-08-13T12:46:34.891Z,101275.97
2017-08-13T12:49:01.300Z,101271.16
2017-08-13T12:51:27.701Z,101270.07
2017-08-13T12:53:54.145Z,101271.04
2017-08-13T12:56:20.562Z,101271.78
2017-08-13T12:58:46.961Z,101279.42
2017-08-13T13:01:13.357Z,101286.19
2017-08-13T13:03:39.767Z,101280.05
2017-08-13T13:06:06.361Z,101274.78
2017-08-13T13:08:33.336Z,101279.95
2017-08-13T13:10:59.718Z,101280.30
2017-08-13T13:13:26.104Z,101276.83
2017-08-13T13:15:52.495Z,101268.97
2017-08-13T13:18:18.884Z,101278.45
2017-08-13T13:20:45.321Z,101277.27
2017-08-13T13:23:11.735Z,101275.36
2017-08-13T13:25:38.132Z,101277.87
2017-08-13T13:28:04.547Z,101280.73
2017-08-13T13:30:30.962Z,101277.12
2017-08-13T13:32:57.316Z,101275.02
2017-08-13T13:35:23.718Z,101283.54
2017-08-13T13:37:50.107Z,101276.38
2017-08-13T13:40:16.501Z,101281.63
2017-08-13T13:42:42.938Z,101291.19
2017-08-13T13:45:09.323Z,101283.87
2017-08-13T13:47:35.730Z,101284.09
2017-08-13T13:50:02.105Z,101279.21
2017-08-13T13:52:28.484Z,101282.41
2017-08-13T13:54:54.914Z,101283.44
2017-08-13T13:57:21.302Z,101283.41
2017-08-13T13:59:47.668Z,101286.73
2017-08-13T14:02:14.049Z,101288.69
2017-08-13T14:04:40.399Z,101292.16
2017-08-13T14:07:06.798Z,101291.97
2017-08-13T14:09:33.201Z,101288.29
2017-08-13T14:11:59.615Z,101280.69
2017-08-13T14:14:26.049Z,101285.17
2017-08-13T14:16:52.425Z,101281.20
2017-08-13T14:19:18.789Z,101283.39
2017-08-13T14:21:45.180Z,101286.84
2017-08-13T14:24:11.609Z,101286.68
2017-08-13T14:26:37.984Z,101284.49
2017-08-13T14:29:04.358Z,101291.45
2017-08-13T14:31:30.749Z,101284.14
2017-08-13T14:33:57.129Z,101287.70
2017-08-13T14:36:23.531Z,101291.84
2017-08-13T14:38:49.916Z,101285.50
2017-08-13T14:41:16.381Z,101287.86
2017-08-13T14:43:42.800Z,101296.48
2017-08-13T14:46:09.209Z,101290.15
2017-08-13T14:48:35.570Z,101295.28
2017-08-13T14:51:01.968Z,101297.86
2017-08-13T14:53:28.382Z,101297.92
2017-08-13T14:55:54.738Z,101296.59
2017-08-13T14:58:21.187Z,101299.09
2017-08-13T15:00:47.657Z,101296.41
2017-08-13T15:03:14.052Z,101299.61
2017-08-13T15:05:40.452Z,101298.20
2017-08-13T15:08:06.867Z,101296.36
2017-08-13T15:10:33.264Z,101301.54
2017-08-13T15:12:59.653Z,101298.95
2017-08-13T15:15:26.052Z,101292.79
2017-08-13T15:17:52.492Z,101299.05
2017-08-13T15:20:18.919Z,101296.34
2017-08-13T15:22:45.310Z,101299.45
2017-08-13T15:25:11.711Z,101301.29
2017-08-13T15:27:38.116Z,101297.03
2017-08-13T15:30:04.501Z,101305.81
2017-08-13T15:32:30.897Z,101296.88
2017-08-13T15:34:57.281Z,101295.97
2017-08-13T15:37:23.707Z,101302.55
2017-08-13T15:39:50.112Z,101299.88
2017-08-13T15:42:16.511Z,101301.69
2017-08-13T15:44:42.907Z,101309.45
2017-08-13T15:47:09.285Z,101300.31
2017-08-13T15:49:35.910Z,101302.09
2017-08-13T15:52:02.289Z,101311.81
2017-08-13T15:54:28.689Z,101303.16
2017-08-13T15:56:55.123Z,101316.50
2017-08-13T15:59:21.558Z,101313.92
2017-08-13T16:01:47.945Z,101317.64
2017-08-13T16:04:14.373Z,101315.30
2017-08-13T16:06:40.773Z,101318.98
2017-08-13T16:09:07.190Z,101315.52
2017-08-13T16:11:33.601Z,101316.58
2017-08-13T16:13:59.982Z,101327.86
2017-08-13T16:16:26.397Z,101323.66
2017-08-13T16:18:52.798Z,101326.47
2017-08-13T16:21:19.202Z,101328.58
2017-08-13T16:23:45.583Z,101321.38
2017-08-13T16:26:11.968Z,101331.05
2017-08-13T16:28:38.354Z,101322.10
2017-08-13T16:31:04.741Z,101326.34
2017-08-13T16:33:31.144Z,101320.90
2017-08-13T16:35:57.566Z,101331.70
2017-08-13T16:38:23.995Z,101337.56
2017-08-13T16:40:50.377Z,101337.73
2017-08-13T16:43:18.102Z,101337.84
2017-08-13T16:45:44.502Z,101339.48
2017-08-13T16:48:10.886Z,101332.55
2017-08-13T16:50:38.333Z,101326.54
2017-08-13T16:53:04.771Z,101337.22
2017-08-13T16:55:31.185Z,101327.14
2017-08-13T16:57:57.544Z,101333.40
2017-08-13T17:00:23.941Z,101331.91
2017-08-13T17:02:50.566Z,101327.08
2017-08-13T17:05:16.998Z,101337.38
2017-08-13T17:07:44.037Z,101335.87
2017-08-13T17:10:10.413Z,101344.11
2017-08-13T17:12:36.775Z,101343.64
2017-08-13T17:15:03.185Z,101335.81
2017-08-13T17:17:29.543Z,101335.52
2017-08-13T17:19:55.932Z,101336.59
2017-08-13T17:22:22.317Z,101334.83
2017-08-13T17:24:48.709Z,101336.92
2017-08-13T17:27:15.103Z,101341.86
2017-08-13T17:29:41.484Z,101341.05
2017-08-13T17:32:07.879Z,101337.84
2017-08-13T17:34:34.291Z,101340.54
2017-08-13T17:37:00.687Z,101339.25
2017-08-13T17:39:27.099Z,101344.92
2017-08-13T17:41:53.466Z,101345.21
2017-08-13T17:44:19.815Z,101346.62
2017-08-13T17:46:46.199Z,101346.27
2017-08-13T17:49:12.612Z,101350.22
2017-08-13T17:51:39.010Z,101354.27
2017-08-13T17:54:05.746Z,101356.00
2017-08-13T17:56:32.749Z,101350.30
2017-08-13T17:58:59.272Z,101354.83
2017-08-13T18:01:29.084Z,101356.11
2017-08-13T18:04:01.225Z,101359.30
2017-08-13T18:06:32.335Z,101363.77
2017-08-13T18:09:03.049Z,101362.56
2017-08-13T18:11:33.237Z,101354.78
2017-08-13T18:14:05.393Z,101365.34
2017-08-13T18:16:36.149Z,101359.16
2017-08-13T18:19:04.428Z,101364.81
2017-08-13T18:21:30.909Z,101366.70
2017-08-13T18:23:57.354Z,101369.33
2017-08-13T18:26:23.746Z,101369.56
2017-08-13T18:28:52.058Z,101370.34
2017-08-13T18:31:19.735Z,101382.30
2017-08-13T18:33:46.659Z,101380.75
2017-08-13T18:36:13.048Z,101379.17
2017-08-13T18:38:39.936Z,101385.16
2017-08-13T18:41:06.395Z,101379.44
2017-08-13T18:43:32.805Z,101385.29
2017-08-13T18:46:00.232Z,101381.67
2017-08-13T18:48:27.221Z,101380.66
2017-08-13T18:50:53.629Z,101389.41
2017-08-13T18:53:20.532Z,101392.23
2017-08-13T18:55:47.507Z,101386.27
2017-08-13T18:58:14.230Z,101393.80
2017-08-13T19:00:40.903Z,101395.45
2017-08-13T19:03:07.542Z,101398.66
2017-08-13T19:05:33.995Z,101400.87
2017-08-13T19:08:00.444Z,101398.52
2017-08-13T19:10:26.913Z,101404.16
2017-08-13T19:12:53.736Z,101412.05
2017-08-13T19:15:20.974Z,101412.36
2017-08-13T19:17:47.969Z,101410.88
2017-08-13T19:20:14.477Z,101413.58
2017-08-13T19:22:41.101Z,101412.58
2017-08-13T19:25:07.992Z,101419.66
2017-08-13T19:27:34.407Z,101418.00
2017-08-13T19:30:00.804Z,101420.92
2017-08-13T19:32:27.206Z,101418.72
2017-08-13T19:34:53.599Z,101419.64
2017-08-13T19:37:20.535Z,101419.59
2017-08-13T19:39:47.368Z,101420.66
2017-08-13T19:42:13.792Z,101418.86
2017-08-13T19:44:40.144Z,101416.56
2017-08-13T19:47:06.595Z,101422.75
2017-08-13T19:49:32.991Z,101422.45
2017-08-13T19:51:59.396Z,101428.25
2017-08-13T19:54:26.380Z,101430.33
2017-08-13T19:56:52.799Z,101437.77
2017-08-13T19:59:24.205Z,101437.69
2017-08-13T20:01:53.966Z,101436.71
2017-08-13T20:04:25.227Z,101433.66
2017-08-13T20:06:55.463Z,101439.77
2017-08-13T20:09:21.971Z,101445.21
2017-08-13T20:11:48.377Z,101445.34
2017-08-13T20:14:15.225Z,101447.20
2017-08-13T20:16:41.776Z,101449.84
2017-08-13T20:19:08.438Z,101445.21
2017-08-13T20:21:35.418Z,101447.94
2017-08-13T20:24:02.276Z,101454.95
2017-08-13T20:26:28.766Z,101449.84
2017-08-13T20:28:55.703Z,101451.53
2017-08-13T20:31:22.480Z,101448.41
2017-08-13T20:33:49.394Z,101452.17
2017-08-13T20:36:15.825Z,101454.14
2017-08-13T20:38:42.315Z,101451.64
2017-08-13T20:41:08.709Z,101459.22
2017-08-13T20:43:35.239Z,101456.46
2017-08-13T20:46:01.801Z,101459.03
2017-08-13T20:48:28.236Z,101460.87
2017-08-13T20:50:54.786Z,101458.61
2017-08-13T20:53:21.159Z,101462.27
2017-08-13T20:55:47.797Z,101455.47
2017-08-13T20:58:14.825Z,101460.42
2017-08-13T21:00:41.307Z,101456.61
2017-08-13T21:03:07.752Z,101459.35
2017-08-13T21:05:34.223Z,101465.85
2017-08-13T21:08:00.622Z,101471.69
2017-08-13T21:10:27.533Z,101469.10
2017-08-13T21:12:54.429Z,101462.59
2017-08-13T21:15:23.805Z,101468.38
2017-08-13T21:17:50.371Z,101463.51
2017-08-13T21:20:16.778Z,101465.14
2017-08-13T21:22:43.181Z,101465.66
2017-08-13T21:25:09.564Z,101458.96
2017-08-13T21:27:35.956Z,101466.07
2017-08-13T21:30:02.520Z,101466.58
2017-08-13T21:32:29.463Z,101459.59
2017-08-13T21:34:56.387Z,101461.91
2017-08-13T21:37:23.272Z,101466.19
2017-08-13T21:39:49.655Z,101472.56
2017-08-13T21:42:16.072Z,101468.40
2017-08-13T21:44:42.505Z,101462.38
2017-08-13T21:47:08.869Z,101470.69
2017-08-13T21:49:35.974Z,101470.77
2017-08-13T21:52:02.372Z,101471.98
2017-08-13T21:54:29.357Z,101471.43
2017-08-13T21:56:55.795Z,101462.78
2017-08-13T21:59:22.367Z,101472.25
2017-08-13T22:01:48.790Z,101473.55
2017-08-13T22:04:15.402Z,101476.54
2017-08-13T22:06:43.097Z,101474.84
2017-08-13T22:09:09.537Z,101473.47
2017-08-13T22:11:36.241Z,101475.58
2017-08-13T22:14:03.057Z,101478.63
2017-08-13T22:16:29.930Z,101473.39
2017-08-13T22:18:56.380Z,101482.01
2017-08-13T22:21:23.858Z,101474.77
2017-08-13T22:23:50.293Z,101478.55
2017-08-13T22:26:16.660Z,101481.90
2017-08-13T22:28:43.049Z,101475.45
2017-08-13T22:31:10.123Z,101470.54
2017-08-13T22:33:36.533Z,101473.89
2017-08-13T22:36:02.913Z,101481.60
2017-08-13T22:38:29.333Z,101476.94
2017-08-13T22:40:55.715Z,101473.64
2017-08-13T22:43:22.081Z,101476.61
2017-08-13T22:45:48.462Z,101473.11
2017-08-13T22:48:14.851Z,101469.97
2017-08-13T22:50:41.489Z,101476.19
2017-08-13T22:53:08.454Z,101474.89
2017-08-13T22:55:35.182Z,101477.81
2017-08-13T22:58:01.547Z,101476.23
2017-08-13T23:00:28.213Z,101471.52
2017-08-13T23:02:54.634Z,101476.58
2017-08-13T23:05:21.055Z,101475.54
2017-08-13T23:07:47.463Z,101469.72
2017-08-13T23:10:13.916Z,101473.36
2017-08-13T23:12:40.298Z,101471.06
2017-08-13T23:15:06.736Z,101470.73
2017-08-13T23:17:33.178Z,101470.78
2017-08-13T23:19:59.588Z,101472.25
2017-08-13T23:22:25.990Z,101466.29
2017-08-13T23:24:52.388Z,101466.06
2017-08-13T23:27:18.769Z,101475.25
2017-08-13T23:29:45.159Z,101471.09
2017-08-13T23:32:11.538Z,101468.27
2017-08-13T23:34:37.952Z,101465.58
2017-08-13T23:37:04.350Z,101467.97
2017-08-13T23:39:30.757Z,101467.56
2017-08-13T23:41:57.158Z,101464.02
2017-08-13T23:44:23.564Z,101466.72
2017-08-13T23:46:49.944Z,101458.64
2017-08-13T23:49:16.302Z,101465.89
2017-08-13T23:51:42.666Z,101459.86
2017-08-13T23:54:09.037Z,101467.71
2017-08-13T23:56:35.425Z,101458.25
2017-08-13T23:59:01.793Z,101460.51
